createdAt,value
2022-10-31T00:00:48.894Z,95362.41
2022-10-31T00:03:17.420Z,95366.19
2022-10-31T00:05:46.617Z,95352.56
2022-10-31T00:08:14.971Z,95368.91
2022-10-31T00:10:43.537Z,95367.84
2022-10-31T00:13:12.657Z,95364.91
2022-10-31T00:15:42.423Z,95367.16
2022-10-31T00:18:11.618Z,95364.44
2022-10-31T00:20:40.102Z,95368.78
2022-10-31T00:23:08.962Z,95365.13
2022-10-31T00:25:39.624Z,95365.72
2022-10-31T00:28:08.570Z,95369.75
2022-10-31T00:30:36.820Z,95370.47
2022-10-31T00:33:07.330Z,95373.19
2022-10-31T00:35:35.258Z,95369.88
2022-10-31T00:38:03.057Z,95366.06
2022-10-31T00:40:31.058Z,95367.16
2022-10-31T00:42:59.517Z,95369.78
2022-10-31T00:45:27.607Z,95369.66
2022-10-31T00:47:55.529Z,95365.25
2022-10-31T00:50:24.930Z,95368.81
2022-10-31T00:52:52.905Z,95368.44
2022-10-31T00:55:20.879Z,95376.50
2022-10-31T00:57:48.956Z,95373.78
2022-10-31T01:00:17.326Z,95368.81
2022-10-31T01:02:45.319Z,95373.66
2022-10-31T01:05:13.747Z,95368.22
2022-10-31T01:07:43.552Z,95362.78
2022-10-31T01:10:12.044Z,95375.31
2022-10-31T01:12:39.955Z,95361.47
2022-10-31T01:15:09.269Z,95371.06
2022-10-31T01:17:37.096Z,95361.84
2022-10-31T01:20:05.831Z,95361.84
2022-10-31T01:22:33.952Z,95360.16
2022-10-31T01:25:03.372Z,95360.63
2022-10-31T01:27:31.295Z,95359.47
2022-10-31T01:29:59.335Z,95361.38
2022-10-31T01:32:27.815Z,95363.00
2022-10-31T01:34:55.599Z,95365.97
2022-10-31T01:37:23.445Z,95370.34
2022-10-31T01:39:51.253Z,95364.56
2022-10-31T01:42:24.136Z,95359.41
2022-10-31T01:45:01.333Z,95358.56
2022-10-31T01:47:36.539Z,95352.53
2022-10-31T01:50:07.906Z,95355.03
2022-10-31T01:52:39.882Z,95350.41
2022-10-31T01:55:09.521Z,95348.75
2022-10-31T01:57:40.146Z,95350.06
2022-10-31T02:00:10.708Z,95345.47
2022-10-31T02:02:38.827Z,95348.06
2022-10-31T02:05:09.524Z,95343.31
2022-10-31T02:07:40.994Z,95342.22
2022-10-31T02:10:09.461Z,95343.91
2022-10-31T02:12:39.028Z,95345.19
2022-10-31T02:15:08.460Z,95337.53
2022-10-31T02:17:36.649Z,95351.34
2022-10-31T02:20:14.340Z,95348.88
2022-10-31T02:22:56.322Z,95345.16
2022-10-31T02:25:39.282Z,95347.31
2022-10-31T02:28:21.875Z,95338.78
2022-10-31T02:31:03.649Z,95336.66
2022-10-31T02:33:35.197Z,95343.75
2022-10-31T02:36:07.814Z,95344.81
2022-10-31T02:38:46.860Z,95338.19
2022-10-31T02:41:22.121Z,95348.72
2022-10-31T02:43:57.747Z,95344.56
2022-10-31T02:46:31.158Z,95344.78
2022-10-31T02:49:03.634Z,95344.44
2022-10-31T02:51:32.029Z,95345.97
2022-10-31T02:53:59.888Z,95343.47
2022-10-31T02:56:27.953Z,95339.91
2022-10-31T02:58:57.775Z,95333.28
2022-10-31T03:02:04.112Z,95338.59
2022-10-31T03:04:43.695Z,95340.47
2022-10-31T03:07:18.974Z,95338.38
2022-10-31T03:09:53.910Z,95337.53
2022-10-31T03:12:27.325Z,95336.69
2022-10-31T03:14:59.214Z,95337.75
2022-10-31T03:17:32.055Z,95335.75
2022-10-31T03:20:03.693Z,95331.81
2022-10-31T03:22:34.571Z,95331.81
2022-10-31T03:25:04.747Z,95325.78
2022-10-31T03:27:35.358Z,95333.81
2022-10-31T03:30:06.059Z,95336.16
2022-10-31T03:32:38.757Z,95339.13
2022-10-31T03:35:10.469Z,95338.97
2022-10-31T03:37:41.639Z,95338.13
2022-10-31T03:40:12.386Z,95345.31
2022-10-31T03:42:42.399Z,95353.47
2022-10-31T03:45:13.919Z,95352.66
2022-10-31T03:47:42.598Z,95352.44
2022-10-31T03:50:13.850Z,95359.00
2022-10-31T03:52:45.554Z,95351.16
2022-10-31T03:55:19.840Z,95354.97
2022-10-31T03:57:54.030Z,95360.06
2022-10-31T04:00:22.250Z,95359.25
2022-10-31T04:02:55.889Z,95354.28
2022-10-31T04:05:25.647Z,95348.69
2022-10-31T04:07:56.079Z,95353.97
2022-10-31T04:10:30.127Z,95351.50
2022-10-31T04:13:03.842Z,95350.28
2022-10-31T04:15:33.438Z,95354.06
2022-10-31T04:18:02.855Z,95359.25
2022-10-31T04:20:37.034Z,95344.41
2022-10-31T04:23:07.212Z,95345.59
2022-10-31T04:25:36.707Z,95351.03
2022-10-31T04:28:04.952Z,95344.78
2022-10-31T04:30:32.965Z,95341.00
2022-10-31T04:33:01.040Z,95343.13
2022-10-31T04:35:29.133Z,95343.13
2022-10-31T04:37:58.394Z,95345.59
2022-10-31T04:40:26.455Z,95339.94
2022-10-31T04:42:54.345Z,95338.91
2022-10-31T04:45:22.228Z,95329.91
2022-10-31T04:47:50.131Z,95337.22
2022-10-31T04:50:18.173Z,95350.44
2022-10-31T04:52:46.776Z,95330.59
2022-10-31T04:55:16.478Z,95332.69
2022-10-31T04:57:44.875Z,95330.00
2022-10-31T05:00:14.558Z,95330.00
2022-10-31T05:02:46.242Z,95326.09
2022-10-31T05:05:14.526Z,95328.78
2022-10-31T05:07:43.033Z,95323.59
2022-10-31T05:10:12.034Z,95327.56
2022-10-31T05:12:48.008Z,95328.66
2022-10-31T05:15:16.579Z,95322.38
2022-10-31T05:17:44.741Z,95323.66
2022-10-31T05:20:12.882Z,95322.00
2022-10-31T05:22:44.783Z,95328.09
2022-10-31T05:25:13.108Z,95321.47
2022-10-31T05:27:43.310Z,95326.09
2022-10-31T05:30:13.134Z,95324.63
2022-10-31T05:32:41.527Z,95311.75
2022-10-31T05:35:10.556Z,95326.38
2022-10-31T05:37:38.583Z,95312.66
2022-10-31T05:40:08.616Z,95312.28
2022-10-31T05:42:36.984Z,95314.00
2022-10-31T05:45:07.509Z,95313.81
2022-10-31T05:47:35.660Z,95306.50
2022-10-31T05:50:03.486Z,95309.06
2022-10-31T05:52:31.399Z,95305.28
2022-10-31T05:54:59.246Z,95299.88
2022-10-31T05:57:27.291Z,95300.31
2022-10-31T05:59:55.377Z,95308.06
2022-10-31T06:02:24.655Z,95307.25
2022-10-31T06:04:52.466Z,95304.38
2022-10-31T06:07:20.321Z,95304.84
2022-10-31T06:09:48.020Z,95304.19
2022-10-31T06:12:15.843Z,95303.59
2022-10-31T06:14:43.662Z,95306.53
2022-10-31T06:17:11.412Z,95309.25
2022-10-31T06:19:40.787Z,95305.50
2022-10-31T06:22:08.799Z,95303.00
2022-10-31T06:24:36.844Z,95301.75
2022-10-31T06:27:04.900Z,95296.31
2022-10-31T06:29:32.720Z,95287.09
2022-10-31T06:32:00.995Z,95285.00
2022-10-31T06:34:28.925Z,95280.78
2022-10-31T06:36:58.236Z,95292.84
2022-10-31T06:39:26.018Z,95288.19
2022-10-31T06:41:54.001Z,95285.63
2022-10-31T06:44:24.150Z,95287.84
2022-10-31T06:46:52.194Z,95287.09
2022-10-31T06:49:20.197Z,95287.00
2022-10-31T06:51:49.619Z,95287.78
2022-10-31T06:54:19.272Z,95288.50
2022-10-31T06:56:48.152Z,95295.28
2022-10-31T06:59:15.984Z,95303.13
2022-10-31T07:01:43.882Z,95297.38
2022-10-31T07:04:12.011Z,95306.06
2022-10-31T07:06:40.260Z,95301.13
2022-10-31T07:09:08.318Z,95307.88
2022-10-31T07:11:37.537Z,95309.81
2022-10-31T07:14:05.497Z,95308.44
2022-10-31T07:16:33.326Z,95311.41
2022-10-31T07:19:01.127Z,95316.28
2022-10-31T07:21:29.053Z,95310.03
2022-10-31T07:23:57.041Z,95314.06
2022-10-31T07:26:24.952Z,95312.41
2022-10-31T07:28:54.260Z,95321.31
2022-10-31T07:31:22.201Z,95317.41
2022-10-31T07:33:50.103Z,95322.06
2022-10-31T07:36:18.092Z,95314.13
2022-10-31T07:38:46.210Z,95319.56
2022-10-31T07:41:14.077Z,95315.19
2022-10-31T07:43:41.976Z,95320.59
2022-10-31T07:46:12.421Z,95324.94
2022-10-31T07:48:40.378Z,95323.84
2022-10-31T07:51:08.447Z,95316.97
2022-10-31T07:53:36.324Z,95324.78
2022-10-31T07:56:04.318Z,95320.34
2022-10-31T07:58:32.224Z,95309.53
2022-10-31T08:01:00.372Z,95312.19
2022-10-31T08:03:29.936Z,95313.31
2022-10-31T08:05:59.562Z,95315.75
2022-10-31T08:08:31.238Z,95318.53
2022-10-31T08:11:01.320Z,95307.03
2022-10-31T08:13:29.309Z,95307.53
2022-10-31T08:15:57.287Z,95307.19
2022-10-31T08:18:25.261Z,95302.53
2022-10-31T08:20:55.811Z,95304.91
2022-10-31T08:23:24.156Z,95298.25
2022-10-31T08:25:52.155Z,95299.53
2022-10-31T08:28:20.054Z,95293.38
2022-10-31T08:30:48.465Z,95291.31
2022-10-31T08:33:18.896Z,95296.91
2022-10-31T08:35:47.252Z,95288.34
2022-10-31T08:38:16.566Z,95277.00
2022-10-31T08:40:44.808Z,95283.16
2022-10-31T08:43:14.785Z,95273.41
2022-10-31T08:45:43.559Z,95279.09
2022-10-31T08:48:13.473Z,95279.78
2022-10-31T08:50:41.485Z,95269.72
2022-10-31T08:53:11.293Z,95271.72
2022-10-31T08:55:41.292Z,95273.00
2022-10-31T08:58:14.585Z,95270.91
2022-10-31T09:00:42.545Z,95270.44
2022-10-31T09:03:13.227Z,95262.81
2022-10-31T09:05:41.272Z,95267.00
2022-10-31T09:08:14.738Z,95263.13
2022-10-31T09:10:45.606Z,95266.19
2022-10-31T09:13:15.123Z,95252.47
2022-10-31T09:15:44.792Z,95245.63
2022-10-31T09:18:13.334Z,95254.47
2022-10-31T09:20:42.399Z,95250.09
2022-10-31T09:23:12.565Z,95257.53
2022-10-31T09:25:41.779Z,95244.91
2022-10-31T09:28:14.668Z,95246.84
2022-10-31T09:30:42.456Z,95248.75
2022-10-31T09:33:12.439Z,95244.31
2022-10-31T09:35:40.701Z,95238.81
2022-10-31T09:38:11.001Z,95249.78
2022-10-31T09:40:40.440Z,95241.47
2022-10-31T09:43:17.943Z,95244.16
2022-10-31T09:45:53.531Z,95245.75
2022-10-31T09:48:38.179Z,95247.66
2022-10-31T09:51:08.176Z,95226.94
2022-10-31T09:53:40.171Z,95237.59
2022-10-31T09:56:10.246Z,95233.38
2022-10-31T09:58:44.415Z,95237.47
2022-10-31T10:01:22.501Z,95227.22
2022-10-31T10:03:52.356Z,95229.41
2022-10-31T10:06:24.472Z,95235.44
2022-10-31T10:08:52.205Z,95233.78
2022-10-31T10:11:31.391Z,95235.91
2022-10-31T10:14:09.953Z,95229.50
2022-10-31T10:16:51.082Z,95218.13
2022-10-31T10:19:35.130Z,95219.63
2022-10-31T10:22:07.407Z,95214.25
2022-10-31T10:24:50.433Z,95211.72
2022-10-31T10:27:23.553Z,95204.78
2022-10-31T10:30:00.460Z,95205.47
2022-10-31T10:32:31.158Z,95197.09
2022-10-31T10:35:04.608Z,95202.75
2022-10-31T10:37:35.034Z,95194.09
2022-10-31T10:40:09.704Z,95194.84
2022-10-31T10:42:55.429Z,95187.25
2022-10-31T10:45:48.353Z,95174.50
2022-10-31T10:48:18.061Z,95183.38
2022-10-31T10:50:49.887Z,95173.53
2022-10-31T10:53:36.275Z,95181.63
2022-10-31T10:56:13.239Z,95173.09
2022-10-31T10:58:42.790Z,95165.25
2022-10-31T11:03:47.244Z,95158.94
2022-10-31T11:06:23.452Z,95155.69
2022-10-31T11:08:52.266Z,95148.88
2022-10-31T11:11:30.807Z,95141.38
2022-10-31T11:14:04.274Z,95143.94
2022-10-31T11:16:41.367Z,95139.22
2022-10-31T11:19:28.552Z,95143.03
2022-10-31T11:21:56.588Z,95135.03
2022-10-31T11:24:27.260Z,95142.94
2022-10-31T11:27:07.681Z,95150.22
2022-10-31T11:29:38.090Z,95145.72
2022-10-31T11:32:07.662Z,95147.06
2022-10-31T11:34:39.305Z,95143.66
2022-10-31T11:37:11.990Z,95141.38
2022-10-31T11:39:43.284Z,95135.03
2022-10-31T11:42:12.273Z,95131.19
2022-10-31T11:44:43.899Z,95130.31
2022-10-31T11:47:16.836Z,95122.94
2022-10-31T11:49:47.485Z,95115.63
2022-10-31T11:52:17.056Z,95121.34
2022-10-31T11:54:48.984Z,95122.16
2022-10-31T11:57:30.672Z,95124.03
2022-10-31T11:59:59.741Z,95113.22
2022-10-31T12:02:29.484Z,95127.31
2022-10-31T12:05:03.322Z,95114.13
2022-10-31T12:07:31.609Z,95118.59
2022-10-31T12:10:00.567Z,95119.81
2022-10-31T12:12:44.306Z,95118.59
2022-10-31T12:15:24.798Z,95116.81
2022-10-31T12:20:40.419Z,95112.00
2022-10-31T12:23:12.880Z,95118.63
2022-10-31T12:25:46.628Z,95117.69
2022-10-31T12:28:34.064Z,95107.72
2022-10-31T12:31:10.100Z,95097.13
2022-10-31T12:33:50.215Z,95089.94
2022-10-31T12:36:38.092Z,95084.16
2022-10-31T12:39:19.487Z,95086.91
2022-10-31T12:41:51.277Z,95087.91
2022-10-31T12:45:03.865Z,95083.19
2022-10-31T12:47:57.366Z,95080.97
2022-10-31T12:50:32.629Z,95076.56
2022-10-31T12:53:10.719Z,95071.22
2022-10-31T13:28:47.197Z,95040.38
2022-10-31T13:32:00.782Z,95030.63
2022-10-31T13:34:35.116Z,95034.44
2022-10-31T13:37:07.620Z,95029.72
2022-10-31T13:39:47.802Z,95027.88
2022-10-31T13:42:21.285Z,95024.81
2022-10-31T13:44:50.379Z,95027.88
2022-10-31T13:47:26.859Z,95016.91
2022-10-31T13:50:06.377Z,95016.22
2022-10-31T13:52:34.230Z,95016.41
2022-10-31T13:55:01.969Z,95018.25
2022-10-31T13:57:34.623Z,94997.78
2022-10-31T14:00:07.310Z,95008.84
2022-10-31T14:02:37.292Z,95007.00
2022-10-31T14:05:10.010Z,95001.28
2022-10-31T14:07:45.247Z,95000.66
2022-10-31T14:10:23.831Z,94999.22
2022-10-31T14:12:51.782Z,94995.63
2022-10-31T14:15:22.504Z,95002.28
2022-10-31T14:17:52.983Z,94991.03
2022-10-31T14:20:41.975Z,94990.22
2022-10-31T14:23:29.110Z,94997.16
2022-10-31T14:26:08.961Z,94990.31
2022-10-31T14:28:39.093Z,94991.03
2022-10-31T14:31:37.459Z,94991.63
2022-10-31T14:34:21.533Z,94983.34
2022-10-31T14:37:11.221Z,94983.84
2022-10-31T14:39:44.555Z,94985.72
2022-10-31T14:42:23.764Z,94982.09
2022-10-31T14:45:20.766Z,94979.13
2022-10-31T14:48:05.178Z,94974.56
2022-10-31T14:50:43.867Z,94975.97
2022-10-31T14:53:17.137Z,94976.28
2022-10-31T15:22:57.703Z,94956.75
2022-10-31T15:25:26.992Z,94961.91
2022-10-31T15:27:55.228Z,94957.16
2022-10-31T15:30:24.896Z,94955.91
2022-10-31T15:33:01.107Z,94959.00
2022-10-31T15:35:30.696Z,94955.09
2022-10-31T15:38:02.602Z,94947.06
2022-10-31T15:40:30.688Z,94950.66
2022-10-31T15:43:01.603Z,94947.34
2022-10-31T15:45:31.468Z,94947.66
2022-10-31T15:48:01.371Z,94956.38
2022-10-31T15:50:34.946Z,94947.38
2022-10-31T15:53:05.617Z,94942.56
2022-10-31T15:55:38.048Z,94949.72
2022-10-31T15:58:06.431Z,94948.25
2022-10-31T16:00:35.619Z,94959.28
2022-10-31T16:03:06.392Z,94943.91
2022-10-31T16:05:39.550Z,94948.56
2022-10-31T16:08:25.823Z,94946.66
2022-10-31T16:10:53.910Z,94949.19
2022-10-31T16:13:37.751Z,94951.72
2022-10-31T16:19:05.065Z,94954.03
2022-10-31T16:21:39.207Z,94941.94
2022-10-31T16:27:04.915Z,94941.88
2022-10-31T16:29:37.649Z,94956.78
2022-10-31T16:32:06.685Z,94949.16
2022-10-31T16:34:39.781Z,94948.13
2022-10-31T16:37:09.609Z,94950.31
2022-10-31T16:39:40.257Z,94945.44
2022-10-31T16:42:11.315Z,94946.25
2022-10-31T16:44:39.151Z,94953.69
2022-10-31T16:47:12.095Z,94960.63
2022-10-31T16:49:39.757Z,94958.75
2022-10-31T16:52:07.969Z,94955.50
2022-10-31T16:54:35.786Z,94951.69
2022-10-31T16:57:06.405Z,94958.28
2022-10-31T16:59:35.132Z,94954.44
2022-10-31T17:02:03.752Z,94958.00
2022-10-31T17:04:31.778Z,94957.22
2022-10-31T17:06:59.604Z,94963.31
2022-10-31T17:09:27.926Z,94961.66
2022-10-31T17:11:55.986Z,94953.72
2022-10-31T17:14:25.257Z,94957.56
2022-10-31T17:16:53.281Z,94957.84
2022-10-31T17:19:21.046Z,94948.25
2022-10-31T17:21:49.011Z,94956.22
2022-10-31T17:24:17.118Z,94956.44
2022-10-31T17:26:45.465Z,94952.63
2022-10-31T17:29:13.584Z,94953.38
2022-10-31T17:31:43.683Z,94954.50
2022-10-31T17:34:11.345Z,94957.25
2022-10-31T17:36:39.120Z,94944.34
2022-10-31T17:39:09.614Z,94952.84
2022-10-31T17:41:37.389Z,94950.59
2022-10-31T17:44:05.505Z,94950.06
2022-10-31T17:46:33.288Z,94953.84
2022-10-31T17:49:03.192Z,94956.56
2022-10-31T17:51:30.941Z,94955.19
2022-10-31T17:53:59.334Z,94956.03
2022-10-31T17:56:26.996Z,94957.38
2022-10-31T17:58:57.228Z,94966.13
2022-10-31T18:01:25.261Z,94961.69
2022-10-31T18:03:53.065Z,94959.78
2022-10-31T18:06:22.137Z,94957.28
2022-10-31T18:08:49.911Z,94953.44
2022-10-31T18:11:18.961Z,94952.56
2022-10-31T18:13:46.736Z,94942.16
2022-10-31T18:16:17.380Z,94954.94
2022-10-31T18:18:45.155Z,94948.09
2022-10-31T18:21:12.982Z,94942.63
2022-10-31T18:23:42.135Z,94948.63
2022-10-31T18:26:09.912Z,94959.00
2022-10-31T18:28:37.785Z,94959.16
2022-10-31T18:31:06.084Z,94952.78
2022-10-31T18:33:33.724Z,94950.03
2022-10-31T18:36:06.861Z,94953.25
2022-10-31T18:38:34.677Z,94945.56
2022-10-31T18:41:03.942Z,94947.16
2022-10-31T18:43:31.670Z,94953.66
2022-10-31T18:46:02.282Z,94944.34
2022-10-31T18:48:31.387Z,94950.28
2022-10-31T18:50:59.290Z,94957.84
2022-10-31T18:53:27.052Z,94952.56
2022-10-31T18:55:54.910Z,94949.00
2022-10-31T18:58:24.085Z,94951.69
2022-10-31T19:00:51.913Z,94942.91
2022-10-31T19:03:24.889Z,94940.63
2022-10-31T19:05:55.733Z,94937.84
2022-10-31T19:08:23.619Z,94946.28
2022-10-31T19:10:51.401Z,94942.47
2022-10-31T19:13:19.088Z,94940.53
2022-10-31T19:15:48.124Z,94938.81
2022-10-31T19:18:15.872Z,94940.75
2022-10-31T19:20:43.685Z,94939.84
2022-10-31T19:23:11.543Z,94936.81
2022-10-31T19:25:39.474Z,94937.31
2022-10-31T19:28:09.155Z,94935.09
2022-10-31T19:30:37.024Z,94933.22
2022-10-31T19:33:07.903Z,94942.22
2022-10-31T19:35:35.862Z,94943.28
2022-10-31T19:38:04.566Z,94936.88
2022-10-31T19:40:33.730Z,94939.47
2022-10-31T19:43:02.530Z,94934.47
2022-10-31T19:45:30.316Z,94939.91
2022-10-31T19:47:58.243Z,94944.28
2022-10-31T19:50:27.746Z,94936.69
2022-10-31T19:52:55.366Z,94934.47
2022-10-31T19:55:23.086Z,94935.91
2022-10-31T19:58:01.720Z,94928.16
2022-10-31T20:00:30.099Z,94928.41
2022-10-31T20:02:57.973Z,94929.25
2022-10-31T20:05:27.237Z,94933.44
2022-10-31T20:07:54.887Z,94936.75
2022-10-31T20:10:22.530Z,94935.09
2022-10-31T20:12:50.162Z,94934.22
2022-10-31T20:15:18.066Z,94938.75
2022-10-31T20:17:45.851Z,94933.56
2022-10-31T20:20:13.710Z,94932.69
2022-10-31T20:22:42.861Z,94939.69
2022-10-31T20:25:10.550Z,94941.03
2022-10-31T20:27:38.206Z,94941.53
2022-10-31T20:30:06.884Z,94941.16
2022-10-31T20:32:34.703Z,94942.38
2022-10-31T20:35:02.442Z,94942.56
2022-10-31T20:37:30.301Z,94944.16
2022-10-31T20:39:59.450Z,94942.56
2022-10-31T20:42:27.285Z,94939.59
2022-10-31T20:44:55.131Z,94947.19
2022-10-31T20:47:23.487Z,94942.00
2022-10-31T20:49:53.684Z,94945.22
2022-10-31T20:52:21.572Z,94949.00
2022-10-31T20:54:49.402Z,94953.31
2022-10-31T20:57:18.481Z,94958.44
2022-10-31T20:59:46.115Z,94954.91
2022-10-31T21:02:13.888Z,94946.91
2022-10-31T21:04:41.639Z,94953.41
2022-10-31T21:07:09.689Z,94957.78
2022-10-31T21:09:37.486Z,94964.22
2022-10-31T21:12:05.774Z,94963.03
2022-10-31T21:14:36.463Z,94955.41
2022-10-31T21:17:04.607Z,94951.50
2022-10-31T21:19:32.434Z,94943.81
2022-10-31T21:22:00.372Z,94948.69
2022-10-31T21:24:31.743Z,94948.94
2022-10-31T21:26:59.512Z,94947.88
2022-10-31T21:29:27.208Z,94950.34
2022-10-31T21:31:56.156Z,94942.94
2022-10-31T21:34:23.842Z,94947.78
2022-10-31T21:36:51.587Z,94944.22
2022-10-31T21:39:19.491Z,94949.69
2022-10-31T21:41:47.194Z,94941.25
2022-10-31T21:44:14.853Z,94937.97
2022-10-31T21:46:43.071Z,94937.16
2022-10-31T21:49:12.507Z,94941.19
2022-10-31T21:51:40.884Z,94939.53
2022-10-31T21:54:27.551Z,94943.09
2022-10-31T21:56:55.587Z,94935.41
2022-10-31T21:59:23.363Z,94931.88
2022-10-31T22:01:51.387Z,94932.13
2022-10-31T22:04:20.913Z,94932.69
2022-10-31T22:06:48.583Z,94927.00
2022-10-31T22:09:17.211Z,94921.72
2022-10-31T22:11:44.845Z,94926.09
2022-10-31T22:14:13.558Z,94924.44
2022-10-31T22:16:41.826Z,94916.50
2022-10-31T22:19:12.176Z,94927.16
2022-10-31T22:21:43.313Z,94915.69
2022-10-31T22:24:11.739Z,94913.22
2022-10-31T22:26:40.257Z,94912.41
2022-10-31T22:29:10.944Z,94912.19
2022-10-31T22:31:40.030Z,94916.22
2022-10-31T22:34:08.127Z,94911.03
2022-10-31T22:36:36.244Z,94909.38
2022-10-31T22:39:05.597Z,94909.97
2022-10-31T22:41:35.137Z,94911.84
2022-10-31T22:44:03.923Z,94907.25
2022-10-31T22:46:33.279Z,94913.03
2022-10-31T22:49:02.418Z,94913.84
2022-10-31T22:51:31.992Z,94904.25
2022-10-31T22:54:00.088Z,94921.09
2022-10-31T22:56:30.760Z,94920.75
2022-10-31T22:58:58.730Z,94914.06
2022-10-31T23:01:29.623Z,94910.16
2022-10-31T23:03:57.693Z,94906.06
2022-10-31T23:06:27.040Z,94909.34
2022-10-31T23:08:55.489Z,94910.69
2022-10-31T23:11:24.984Z,94915.28
2022-10-31T23:14:13.751Z,94915.28
2022-10-31T23:16:47.196Z,94919.31
2022-10-31T23:19:17.254Z,94927.97
2022-10-31T23:21:56.073Z,94929.03
2022-10-31T23:24:25.536Z,94929.50
2022-10-31T23:27:11.485Z,94929.50
2022-10-31T23:29:43.551Z,94930.84
2022-10-31T23:32:14.363Z,94931.06
2022-10-31T23:34:42.034Z,94936.41
2022-10-31T23:37:10.389Z,94956.97
2022-10-31T23:39:38.352Z,94946.00
2022-10-31T23:42:06.558Z,94957.38
2022-10-31T23:44:34.210Z,94953.34
2022-10-31T23:47:03.331Z,94956.06
2022-10-31T23:49:31.058Z,94952.44
2022-10-31T23:51:58.908Z,94954.53
2022-10-31T23:54:27.368Z,94961.06
2022-10-31T23:56:55.440Z,94965.41
2022-10-31T23:59:23.317Z,94955.63
